Tumi Litli — 2504 — position and weather

sailwx.info

Track history (hours):
 
Tides and Currents Weather Stations Pressure Air Temp Water Temp Dewpoint Dewpoint Depression Visibility Wind Speed Wind Dir Waves Ship Positions

Tumi Litli

Last reported at 2017-Feb-12 21:33 UTC. Time now 2017-Jul-26 00:45 UTC.
Position N 37°42' E 002°32'.
Warning: this ship's position is months out of date.

Length 10 m.

Type: Fishing. MMSI: 251402340.

Date/timePositionNaut miles runAvg speedWind from/ knotsBaromVisibWave heightAir tempDewpointWater temp
2017-Feb-12 21:33N 37°42' E 002°32'4 4.2
2017-Feb-12 20:31N 37°46' E 002°30'1 1.3
2017-Feb-12 19:24N 37°47' E 002°31'1 0.9
2017-Feb-12 18:33N 37°48' E 002°31'2 1.5
2017-Feb-12 17:26N 37°49' E 002°32'1 1.1
2017-Feb-12 16:31N 37°50' E 002°33'0 0.0
2017-Feb-12 15:31N 37°50' E 002°33'0 0.0
2017-Feb-12 14:31N 37°50' E 002°33'1 0.9
2017-Feb-12 13:33N 37°49' E 002°33'5 4.8
2017-Feb-12 12:33N 37°44' E 002°31'1 0.7
2017-Feb-12 11:32N 37°45' E 002°31'  
Track history (hours):
 
Tides and Currents Weather Stations Pressure Air Temp Water Temp Dewpoint Dewpoint Depression Visibility Wind Speed Wind Dir Waves Ship Positions

Tumi Litli

Last reported at 2017-Feb-12 21:33 UTC. Time now 2017-Jul-26 00:45 UTC.
Position N 37°42' E 002°32'.
Warning: this ship's position is months out of date.

Length 10 m.

Type: Fishing. MMSI: 251402340.

Date/timePositionNaut miles runAvg speedWind from/ knotsBaromVisibWave heightAir tempDewpointWater temp
2017-Feb-12 21:33N 37°42' E 002°32'4 4.2
2017-Feb-12 20:31N 37°46' E 002°30'1 1.3
2017-Feb-12 19:24N 37°47' E 002°31'1 0.9
2017-Feb-12 18:33N 37°48' E 002°31'2 1.5
2017-Feb-12 17:26N 37°49' E 002°32'1 1.1
2017-Feb-12 16:31N 37°50' E 002°33'0 0.0
2017-Feb-12 15:31N 37°50' E 002°33'0 0.0
2017-Feb-12 14:31N 37°50' E 002°33'1 0.9
2017-Feb-12 13:33N 37°49' E 002°33'5 4.8
2017-Feb-12 12:33N 37°44' E 002°31'1 0.7
2017-Feb-12 11:32N 37°45' E 002°31'  

Dump ship's entire track history